Terminal Aerodrome Forecast
Issued by NWS

Home | Current Version | Previous Version | Text Only | Print | Product List | Glossary Off
Versions: 1 2 3 4 5 6 7 8 9 10 11 12 13 14

068
FTUS43 KICT 212328
TAFHUT
TAF
KHUT 212328Z 2200/2224 18005KT P6SM SKC
     FM221500 26006KT P6SM SCT250=

USA.gov is the U.S. government's official web portal to all federal, state and local government web resources and services.